sensor_id;sensor_type;location;lat;lon;timestamp;pressure;altitude;pressure_sealevel;temperature
79756;BMP280;69239;50.678;12.280;2024-01-30T00:00:32;98980.50;;;4.84
79756;BMP280;69239;50.678;12.280;2024-01-30T00:02:57;98978.13;;;4.82
79756;BMP280;69239;50.678;12.280;2024-01-30T00:05:23;98975.41;;;4.77
79756;BMP280;69239;50.678;12.280;2024-01-30T00:07:48;98981.22;;;4.79
79756;BMP280;69239;50.678;12.280;2024-01-30T00:10:13;98985.31;;;4.75
79756;BMP280;69239;50.678;12.280;2024-01-30T00:12:39;98984.75;;;4.73
79756;BMP280;69239;50.678;12.280;2024-01-30T00:15:04;98973.06;;;4.64
79756;BMP280;69239;50.678;12.280;2024-01-30T00:17:30;98973.16;;;4.58
79756;BMP280;69239;50.678;12.280;2024-01-30T00:19:55;98982.69;;;4.64
79756;BMP280;69239;50.678;12.280;2024-01-30T00:22:21;98991.44;;;4.69
79756;BMP280;69239;50.678;12.280;2024-01-30T00:24:46;98982.69;;;4.64
79756;BMP280;69239;50.678;12.280;2024-01-30T00:27:11;98976.38;;;4.60
79756;BMP280;69239;50.678;12.280;2024-01-30T00:29:37;98983.41;;;4.59
79756;BMP280;69239;50.678;12.280;2024-01-30T00:32:02;98992.34;;;4.63
79756;BMP280;69239;50.678;12.280;2024-01-30T00:34:27;98993.38;;;4.62
79756;BMP280;69239;50.678;12.280;2024-01-30T00:36:53;98988.38;;;4.61
79756;BMP280;69239;50.678;12.280;2024-01-30T00:39:18;98987.03;;;4.58
79756;BMP280;69239;50.678;12.280;2024-01-30T00:41:44;98985.69;;;4.56
79756;BMP280;69239;50.678;12.280;2024-01-30T00:44:10;98984.31;;;4.53
79756;BMP280;69239;50.678;12.280;2024-01-30T00:46:35;98979.34;;;4.51
79756;BMP280;69239;50.678;12.280;2024-01-30T00:49:01;98974.34;;;4.50
79756;BMP280;69239;50.678;12.280;2024-01-30T00:51:26;98980.56;;;4.49
79756;BMP280;69239;50.678;12.280;2024-01-30T00:53:53;98964.25;;;4.42
79756;BMP280;69239;50.678;12.280;2024-01-30T00:56:19;98980.34;;;4.50
79756;BMP280;69239;50.678;12.280;2024-01-30T00:58:44;98974.25;;;4.45
79756;BMP280;69239;50.678;12.280;2024-01-30T01:01:09;98985.00;;;4.48
79756;BMP280;69239;50.678;12.280;2024-01-30T01:03:35;98986.25;;;4.46
79756;BMP280;69239;50.678;12.280;2024-01-30T01:06:00;98983.53;;;4.41
79756;BMP280;69239;50.678;12.280;2024-01-30T01:08:26;98970.38;;;4.36
79756;BMP280;69239;50.678;12.280;2024-01-30T01:10:51;98980.91;;;4.41
79756;BMP280;69239;50.678;12.280;2024-01-30T01:13:17;98978.78;;;4.38
79756;BMP280;69239;50.678;12.280;2024-01-30T01:15:42;98984.00;;;4.38
79756;BMP280;69239;50.678;12.280;2024-01-30T01:18:08;98981.59;;;4.36
79756;BMP280;69239;50.678;12.280;2024-01-30T01:20:33;98984.44;;;4.35
79756;BMP280;69239;50.678;12.280;2024-01-30T01:22:58;98972.09;;;4.30
79756;BMP280;69239;50.678;12.280;2024-01-30T01:25:23;98982.31;;;4.32
79756;BMP280;69239;50.678;12.280;2024-01-30T01:27:49;98972.75;;;4.25
79756;BMP280;69239;50.678;12.280;2024-01-30T01:30:17;98974.47;;;4.32
79756;BMP280;69239;50.678;12.280;2024-01-30T01:32:50;98972.91;;;4.31
79756;BMP280;69239;50.678;12.280;2024-01-30T01:35:21;98975.72;;;4.29
79756;BMP280;69239;50.678;12.280;2024-01-30T01:37:48;98966.88;;;4.30
79756;BMP280;69239;50.678;12.280;2024-01-30T01:40:20;98964.06;;;4.32
79756;BMP280;69239;50.678;12.280;2024-01-30T01:42:45;98966.66;;;4.32
79756;BMP280;69239;50.678;12.280;2024-01-30T01:45:10;98959.06;;;4.30
79756;BMP280;69239;50.678;12.280;2024-01-30T01:47:36;98962.78;;;4.34
79756;BMP280;69239;50.678;12.280;2024-01-30T01:50:02;98961.69;;;4.30
79756;BMP280;69239;50.678;12.280;2024-01-30T01:52:28;98953.63;;;4.32
79756;BMP280;69239;50.678;12.280;2024-01-30T01:54:53;98952.03;;;4.31
79756;BMP280;69239;50.678;12.280;2024-01-30T01:57:19;98957.59;;;4.34
79756;BMP280;69239;50.678;12.280;2024-01-30T01:59:44;98941.72;;;4.24
79756;BMP280;69239;50.678;12.280;2024-01-30T02:02:11;98957.59;;;4.34
79756;BMP280;69239;50.678;12.280;2024-01-30T02:04:36;98950.00;;;4.33
79756;BMP280;69239;50.678;12.280;2024-01-30T02:07:01;98947.25;;;4.28
79756;BMP280;69239;50.678;12.280;2024-01-30T02:09:27;98939.31;;;4.22
79756;BMP280;69239;50.678;12.280;2024-01-30T02:11:52;98942.84;;;4.28
79756;BMP280;69239;50.678;12.280;2024-01-30T02:14:17;98941.72;;;4.24
79756;BMP280;69239;50.678;12.280;2024-01-30T02:16:43;98948.50;;;4.25
79756;BMP280;69239;50.678;12.280;2024-01-30T02:19:08;98942.50;;;4.24
79756;BMP280;69239;50.678;12.280;2024-01-30T02:21:33;98942.94;;;4.21
79756;BMP280;69239;50.678;12.280;2024-01-30T02:24:01;98932.19;;;4.18
79756;BMP280;69239;50.678;12.280;2024-01-30T02:26:26;98943.41;;;4.18
79756;BMP280;69239;50.678;12.280;2024-01-30T02:28:52;98937.31;;;4.13
79756;BMP280;69239;50.678;12.280;2024-01-30T02:31:17;98942.88;;;4.16
79756;BMP280;69239;50.678;12.280;2024-01-30T02:33:42;98943.88;;;4.15
79756;BMP280;69239;50.678;12.280;2024-01-30T02:36:08;98932.97;;;4.07
79756;BMP280;69239;50.678;12.280;2024-01-30T02:38:33;98948.28;;;4.15
79756;BMP280;69239;50.678;12.280;2024-01-30T02:40:59;98932.19;;;4.06
79756;BMP280;69239;50.678;12.280;2024-01-30T02:43:24;98935.59;;;4.07
79756;BMP280;69239;50.678;12.280;2024-01-30T02:45:49;98937.75;;;4.10
79756;BMP280;69239;50.678;12.280;2024-01-30T02:48:15;98925.28;;;4.00
79756;BMP280;69239;50.678;12.280;2024-01-30T02:50:40;98936.47;;;4.01
79756;BMP280;69239;50.678;12.280;2024-01-30T02:53:05;98934.09;;;3.99
79756;BMP280;69239;50.678;12.280;2024-01-30T02:55:31;98935.13;;;3.98
79756;BMP280;69239;50.678;12.280;2024-01-30T02:57:56;98925.06;;;3.90
79756;BMP280;69239;50.678;12.280;2024-01-30T03:00:21;98939.44;;;3.92
79756;BMP280;69239;50.678;12.280;2024-01-30T03:02:47;98935.81;;;3.93
79756;BMP280;69239;50.678;12.280;2024-01-30T03:05:12;98928.22;;;3.92
79756;BMP280;69239;50.678;12.280;2024-01-30T03:07:37;98932.31;;;3.88
79756;BMP280;69239;50.678;12.280;2024-01-30T03:10:06;98919.16;;;3.83
79756;BMP280;69239;50.678;12.280;2024-01-30T03:12:32;98928.34;;;3.85
79756;BMP280;69239;50.678;12.280;2024-01-30T03:14:57;98930.59;;;3.82
79756;BMP280;69239;50.678;12.280;2024-01-30T03:17:23;98914.19;;;3.70
79756;BMP280;69239;50.678;12.280;2024-01-30T03:19:49;98926.63;;;3.79
79756;BMP280;69239;50.678;12.280;2024-01-30T03:22:14;98909.84;;;3.63
79756;BMP280;69239;50.678;12.280;2024-01-30T03:24:40;98908.97;;;3.70
79756;BMP280;69239;50.678;12.280;2024-01-30T03:27:05;98917.34;;;3.72
79756;BMP280;69239;50.678;12.280;2024-01-30T03:29:30;98913.03;;;3.65
79756;BMP280;69239;50.678;12.280;2024-01-30T03:31:56;98908.28;;;3.62
79756;BMP280;69239;50.678;12.280;2024-01-30T03:34:21;98916.22;;;3.67
79756;BMP280;69239;50.678;12.280;2024-01-30T03:36:47;98917.81;;;3.69
79756;BMP280;69239;50.678;12.280;2024-01-30T03:39:12;98902.50;;;3.60
79756;BMP280;69239;50.678;12.280;2024-01-30T03:41:37;98908.03;;;3.64
79756;BMP280;69239;50.678;12.280;2024-01-30T03:44:03;98901.91;;;3.58
79756;BMP280;69239;50.678;12.280;2024-01-30T03:46:28;98900.31;;;3.57
79756;BMP280;69239;50.678;12.280;2024-01-30T03:48:53;98918.22;;;3.65
79756;BMP280;69239;50.678;12.280;2024-01-30T03:51:19;98915.06;;;3.63
79756;BMP280;69239;50.678;12.280;2024-01-30T03:53:45;98910.75;;;3.57
79756;BMP280;69239;50.678;12.280;2024-01-30T03:56:12;98908.72;;;3.59
79756;BMP280;69239;50.678;12.280;2024-01-30T03:58:38;98909.72;;;3.58
79756;BMP280;69239;50.678;12.280;2024-01-30T04:01:04;98890.00;;;3.51
79756;BMP280;69239;50.678;12.280;2024-01-30T04:03:29;98890.78;;;3.51
79756;BMP280;69239;50.678;12.280;2024-01-30T04:05:55;98890.00;;;3.51
79756;BMP280;69239;50.678;12.280;2024-01-30T04:08:20;98890.78;;;3.51
79756;BMP280;69239;50.678;12.280;2024-01-30T04:10:46;98888.19;;;3.51
79756;BMP280;69239;50.678;12.280;2024-01-30T04:13:12;98873.28;;;3.47
79756;BMP280;69239;50.678;12.280;2024-01-30T04:15:37;98885.59;;;3.51
79756;BMP280;69239;50.678;12.280;2024-01-30T04:18:03;98882.91;;;3.46
79756;BMP280;69239;50.678;12.280;2024-01-30T04:20:29;98884.25;;;3.49
79756;BMP280;69239;50.678;12.280;2024-01-30T04:22:54;98875.28;;;3.45
79756;BMP280;69239;50.678;12.280;2024-01-30T04:25:20;98882.44;;;3.49
79756;BMP280;69239;50.678;12.280;2024-01-30T04:27:45;98888.69;;;3.48
79756;BMP280;69239;50.678;12.280;2024-01-30T04:30:11;98878.25;;;3.48
79756;BMP280;69239;50.678;12.280;2024-01-30T04:32:36;98871.34;;;3.42
79756;BMP280;69239;50.678;12.280;2024-01-30T04:35:03;98877.34;;;3.43
79756;BMP280;69239;50.678;12.280;2024-01-30T04:37:28;98881.28;;;3.45
79756;BMP280;69239;50.678;12.280;2024-01-30T04:39:53;98870.19;;;3.38
79756;BMP280;69239;50.678;12.280;2024-01-30T04:42:19;98876.53;;;3.42
79756;BMP280;69239;50.678;12.280;2024-01-30T04:44:44;98864.19;;;3.37
79756;BMP280;69239;50.678;12.280;2024-01-30T04:47:10;98864.97;;;3.38
79756;BMP280;69239;50.678;12.280;2024-01-30T04:49:38;98866.34;;;3.41
79756;BMP280;69239;50.678;12.280;2024-01-30T04:52:05;98858.97;;;3.37
79756;BMP280;69239;50.678;12.280;2024-01-30T04:54:30;98864.53;;;3.41
79756;BMP280;69239;50.678;12.280;2024-01-30T04:56:55;98866.13;;;3.42
79756;BMP280;69239;50.678;12.280;2024-01-30T04:59:21;98852.88;;;3.44
79756;BMP280;69239;50.678;12.280;2024-01-30T05:01:46;98846.88;;;3.43
79756;BMP280;69239;50.678;12.280;2024-01-30T05:04:11;98836.13;;;3.40
79756;BMP280;69239;50.678;12.280;2024-01-30T05:06:37;98832.16;;;3.37
79756;BMP280;69239;50.678;12.280;2024-01-30T05:09:02;98833.88;;;3.43
79756;BMP280;69239;50.678;12.280;2024-01-30T05:11:30;98833.31;;;3.41
79756;BMP280;69239;50.678;12.280;2024-01-30T05:13:55;98828.09;;;3.41
79756;BMP280;69239;50.678;12.280;2024-01-30T05:16:20;98845.22;;;3.49
79756;BMP280;69239;50.678;12.280;2024-01-30T05:18:46;98845.22;;;3.49
79756;BMP280;69239;50.678;12.280;2024-01-30T05:21:11;98826.28;;;3.42
79756;BMP280;69239;50.678;12.280;2024-01-30T05:23:36;98842.34;;;3.50
79756;BMP280;69239;50.678;12.280;2024-01-30T05:26:02;98845.75;;;3.51
79756;BMP280;69239;50.678;12.280;2024-01-30T05:28:29;98848.84;;;3.59
79756;BMP280;69239;50.678;12.280;2024-01-30T05:30:55;98848.72;;;3.66
79756;BMP280;69239;50.678;12.280;2024-01-30T05:33:21;98840.56;;;3.62
79756;BMP280;69239;50.678;12.280;2024-01-30T05:35:46;98847.13;;;3.65
79756;BMP280;69239;50.678;12.280;2024-01-30T05:38:11;98856.41;;;3.73
79756;BMP280;69239;50.678;12.280;2024-01-30T05:40:37;98859.03;;;3.73
79756;BMP280;69239;50.678;12.280;2024-01-30T05:43:03;98856.31;;;3.67
79756;BMP280;69239;50.678;12.280;2024-01-30T05:45:28;98847.81;;;3.60
79756;BMP280;69239;50.678;12.280;2024-01-30T05:47:54;98855.16;;;3.63
79756;BMP280;69239;50.678;12.280;2024-01-30T05:50:19;98852.91;;;3.55
79756;BMP280;69239;50.678;12.280;2024-01-30T05:52:45;98844.41;;;3.48
79756;BMP280;69239;50.678;12.280;2024-01-30T05:55:11;98855.94;;;3.52
79756;BMP280;69239;50.678;12.280;2024-01-30T05:57:37;98855.94;;;3.52
79756;BMP280;69239;50.678;12.280;2024-01-30T06:00:04;98860.34;;;3.52
79756;BMP280;69239;50.678;12.280;2024-01-30T06:02:30;98869.06;;;3.57
79756;BMP280;69239;50.678;12.280;2024-01-30T06:04:56;98867.06;;;3.59
79756;BMP280;69239;50.678;12.280;2024-01-30T06:07:21;98865.44;;;3.58
79756;BMP280;69239;50.678;12.280;2024-01-30T06:09:47;98870.22;;;3.61
79756;BMP280;69239;50.678;12.280;2024-01-30T06:12:13;98869.66;;;3.59
79756;BMP280;69239;50.678;12.280;2024-01-30T06:14:38;98874.66;;;3.61
79756;BMP280;69239;50.678;12.280;2024-01-30T06:17:04;98867.25;;;3.58
79756;BMP280;69239;50.678;12.280;2024-01-30T06:19:30;98886.19;;;3.65
79756;BMP280;69239;50.678;12.280;2024-01-30T06:21:55;98874.56;;;3.67
79756;BMP280;69239;50.678;12.280;2024-01-30T06:24:26;98884.50;;;3.71
79756;BMP280;69239;50.678;12.280;2024-01-30T06:26:53;98876.13;;;3.69
79756;BMP280;69239;50.678;12.280;2024-01-30T06:29:18;98881.47;;;3.74
79756;BMP280;69239;50.678;12.280;2024-01-30T06:31:44;98883.72;;;3.82
79756;BMP280;69239;50.678;12.280;2024-01-30T06:34:09;98885.88;;;3.85
79756;BMP280;69239;50.678;12.280;2024-01-30T06:36:36;98892.66;;;3.86
79756;BMP280;69239;50.678;12.280;2024-01-30T06:39:02;98892.66;;;3.86
79756;BMP280;69239;50.678;12.280;2024-01-30T06:41:28;98892.00;;;3.90
79756;BMP280;69239;50.678;12.280;2024-01-30T06:43:53;98889.03;;;3.87
79756;BMP280;69239;50.678;12.280;2024-01-30T06:46:19;98881.00;;;3.88
79756;BMP280;69239;50.678;12.280;2024-01-30T06:48:44;98898.88;;;3.96
79756;BMP280;69239;50.678;12.280;2024-01-30T06:51:11;98888.13;;;3.93
79756;BMP280;69239;50.678;12.280;2024-01-30T06:53:37;98868.41;;;3.97
79756;BMP280;69239;50.678;12.280;2024-01-30T06:56:02;98894.31;;;4.27
79756;BMP280;69239;50.678;12.280;2024-01-30T06:58:28;98885.47;;;4.40
79756;BMP280;69239;50.678;12.280;2024-01-30T07:00:54;98880.34;;;4.45
79756;BMP280;69239;50.678;12.280;2024-01-30T07:03:19;98898.16;;;4.76
79756;BMP280;69239;50.678;12.280;2024-01-30T07:05:45;98895.38;;;4.95
79756;BMP280;69239;50.678;12.280;2024-01-30T07:08:10;98904.38;;;5.16
79756;BMP280;69239;50.678;12.280;2024-01-30T07:10:35;98893.69;;;5.34
79756;BMP280;69239;50.678;12.280;2024-01-30T07:13:01;98894.66;;;5.45
79756;BMP280;69239;50.678;12.280;2024-01-30T07:15:26;98878.97;;;5.45
79756;BMP280;69239;50.678;12.280;2024-01-30T07:17:52;98897.63;;;5.70
79756;BMP280;69239;50.678;12.280;2024-01-30T07:20:17;98899.50;;;5.91
79756;BMP280;69239;50.678;12.280;2024-01-30T07:22:45;98897.56;;;6.20
79756;BMP280;69239;50.678;12.280;2024-01-30T07:25:11;98905.88;;;6.39
79756;BMP280;69239;50.678;12.280;2024-01-30T07:27:36;98897.78;;;6.63
79756;BMP280;69239;50.678;12.280;2024-01-30T07:30:02;98890.72;;;6.90
79756;BMP280;69239;50.678;12.280;2024-01-30T07:32:27;98897.81;;;7.21
79756;BMP280;69239;50.678;12.280;2024-01-30T07:34:53;98885.78;;;7.20
79756;BMP280;69239;50.678;12.280;2024-01-30T07:37:18;98893.16;;;7.29
79756;BMP280;69239;50.678;12.280;2024-01-30T07:39:44;98900.53;;;7.37
79756;BMP280;69239;50.678;12.280;2024-01-30T07:42:10;98894.34;;;7.48
79756;BMP280;69239;50.678;12.280;2024-01-30T07:44:35;98893.00;;;7.82
79756;BMP280;69239;50.678;12.280;2024-01-30T07:47:01;98904.16;;;8.10
79756;BMP280;69239;50.678;12.280;2024-01-30T07:49:28;98891.59;;;8.27
79756;BMP280;69239;50.678;12.280;2024-01-30T07:51:53;98912.16;;;8.46
79756;BMP280;69239;50.678;12.280;2024-01-30T07:54:19;98915.03;;;8.44
79756;BMP280;69239;50.678;12.280;2024-01-30T07:56:44;98907.41;;;8.32
79756;BMP280;69239;50.678;12.280;2024-01-30T07:59:11;98902.88;;;8.23
79756;BMP280;69239;50.678;12.280;2024-01-30T08:01:37;98900.78;;;8.20
79756;BMP280;69239;50.678;12.280;2024-01-30T08:04:03;98897.84;;;8.16
79756;BMP280;69239;50.678;12.280;2024-01-30T08:06:28;98890.78;;;8.11
79756;BMP280;69239;50.678;12.280;2024-01-30T08:08:54;98889.22;;;8.10
79756;BMP280;69239;50.678;12.280;2024-01-30T08:11:22;98895.78;;;8.18
79756;BMP280;69239;50.678;12.280;2024-01-30T08:13:52;98904.28;;;8.51
79756;BMP280;69239;50.678;12.280;2024-01-30T08:16:18;98899.84;;;8.61
79756;BMP280;69239;50.678;12.280;2024-01-30T08:18:43;98902.22;;;8.78
79756;BMP280;69239;50.678;12.280;2024-01-30T08:21:09;98898.56;;;8.94
79756;BMP280;69239;50.678;12.280;2024-01-30T08:23:35;98894.88;;;9.46
79756;BMP280;69239;50.678;12.280;2024-01-30T08:26:00;98901.13;;;9.86
79756;BMP280;69239;50.678;12.280;2024-01-30T08:28:26;98899.91;;;10.17
79756;BMP280;69239;50.678;12.280;2024-01-30T08:30:52;98888.63;;;10.61
79756;BMP280;69239;50.678;12.280;2024-01-30T08:33:17;98894.91;;;11.28
79756;BMP280;69239;50.678;12.280;2024-01-30T08:35:43;98896.09;;;11.65
79756;BMP280;69239;50.678;12.280;2024-01-30T08:38:08;98896.00;;;11.75
79756;BMP280;69239;50.678;12.280;2024-01-30T08:40:34;98885.00;;;11.68
79756;BMP280;69239;50.678;12.280;2024-01-30T08:43:00;98903.41;;;11.73
79756;BMP280;69239;50.678;12.280;2024-01-30T08:45:25;98895.22;;;11.50
79756;BMP280;69239;50.678;12.280;2024-01-30T08:47:50;98907.44;;;11.41
79756;BMP280;69239;50.678;12.280;2024-01-30T08:50:16;98905.75;;;11.50
79756;BMP280;69239;50.678;12.280;2024-01-30T08:52:41;98897.38;;;11.48
79756;BMP280;69239;50.678;12.280;2024-01-30T08:55:07;98894.53;;;11.64
79756;BMP280;69239;50.678;12.280;2024-01-30T08:57:33;98902.63;;;11.72
79756;BMP280;69239;50.678;12.280;2024-01-30T08:59:58;98901.13;;;11.90
79756;BMP280;69239;50.678;12.280;2024-01-30T09:02:24;98902.06;;;11.99
79756;BMP280;69239;50.678;12.280;2024-01-30T09:04:49;98907.34;;;11.99
79756;BMP280;69239;50.678;12.280;2024-01-30T09:07:15;98909.72;;;11.96
79756;BMP280;69239;50.678;12.280;2024-01-30T09:09:41;98880.16;;;11.75
79756;BMP280;69239;50.678;12.280;2024-01-30T09:12:06;98903.31;;;11.83
79756;BMP280;69239;50.678;12.280;2024-01-30T09:14:35;98892.66;;;11.69
79756;BMP280;69239;50.678;12.280;2024-01-30T09:17:00;98903.09;;;11.55
79756;BMP280;69239;50.678;12.280;2024-01-30T09:19:26;98884.88;;;11.30
79756;BMP280;69239;50.678;12.280;2024-01-30T09:21:51;98900.66;;;11.35
79756;BMP280;69239;50.678;12.280;2024-01-30T09:24:17;98899.56;;;11.36
79756;BMP280;69239;50.678;12.280;2024-01-30T09:26:42;98895.03;;;11.42
79756;BMP280;69239;50.678;12.280;2024-01-30T09:29:08;98903.56;;;11.57
79756;BMP280;69239;50.678;12.280;2024-01-30T09:31:33;98888.50;;;11.63
79756;BMP280;69239;50.678;12.280;2024-01-30T09:33:59;98892.56;;;11.74
79756;BMP280;69239;50.678;12.280;2024-01-30T09:36:24;98886.44;;;11.79
79756;BMP280;69239;50.678;12.280;2024-01-30T09:38:50;98880.41;;;11.78
79756;BMP280;69239;50.678;12.280;2024-01-30T09:41:19;98890.28;;;11.68
79756;BMP280;69239;50.678;12.280;2024-01-30T09:43:47;98900.03;;;11.43
79756;BMP280;69239;50.678;12.280;2024-01-30T09:46:17;98907.53;;;11.31
79756;BMP280;69239;50.678;12.280;2024-01-30T09:48:45;98903.34;;;11.30
79756;BMP280;69239;50.678;12.280;2024-01-30T09:51:11;98903.84;;;11.32
79756;BMP280;69239;50.678;12.280;2024-01-30T09:53:38;98899.44;;;11.22
79756;BMP280;69239;50.678;12.280;2024-01-30T09:56:05;98898.09;;;11.25
79756;BMP280;69239;50.678;12.280;2024-01-30T09:58:30;98901.03;;;11.23
79756;BMP280;69239;50.678;12.280;2024-01-30T10:00:56;98899.91;;;11.30
79756;BMP280;69239;50.678;12.280;2024-01-30T10:05:52;98904.00;;;11.70
79756;BMP280;69239;50.678;12.280;2024-01-30T10:08:18;98904.09;;;11.83
79756;BMP280;69239;50.678;12.280;2024-01-30T10:10:47;98900.31;;;12.08
79756;BMP280;69239;50.678;12.280;2024-01-30T10:13:12;98893.50;;;12.07
79756;BMP280;69239;50.678;12.280;2024-01-30T10:15:41;98898.34;;;12.00
79756;BMP280;69239;50.678;12.280;2024-01-30T10:18:07;98886.91;;;11.86
79756;BMP280;69239;50.678;12.280;2024-01-30T10:20:34;98886.31;;;11.89
79756;BMP280;69239;50.678;12.280;2024-01-30T10:22:59;98885.38;;;12.04
79756;BMP280;69239;50.678;12.280;2024-01-30T10:25:27;98880.66;;;12.19
79756;BMP280;69239;50.678;12.280;2024-01-30T10:27:53;98875.53;;;12.47
79756;BMP280;69239;50.678;12.280;2024-01-30T10:30:22;98878.16;;;12.79
79756;BMP280;69239;50.678;12.280;2024-01-30T10:32:48;98871.34;;;13.06
79756;BMP280;69239;50.678;12.280;2024-01-30T10:35:14;98856.91;;;13.31
79756;BMP280;69239;50.678;12.280;2024-01-30T10:37:40;98844.94;;;13.19
79756;BMP280;69239;50.678;12.280;2024-01-30T10:40:06;98863.38;;;13.11
79756;BMP280;69239;50.678;12.280;2024-01-30T10:42:36;98850.81;;;13.03
79756;BMP280;69239;50.678;12.280;2024-01-30T10:47:40;98861.94;;;13.00
79756;BMP280;69239;50.678;12.280;2024-01-30T10:50:07;98863.22;;;12.88
79756;BMP280;69239;50.678;12.280;2024-01-30T10:52:33;98859.75;;;12.74
79756;BMP280;69239;50.678;12.280;2024-01-30T10:54:59;98852.03;;;12.59
79756;BMP280;69239;50.678;12.280;2024-01-30T10:57:25;98856.50;;;12.45
79756;BMP280;69239;50.678;12.280;2024-01-30T10:59:58;98857.63;;;12.25
79756;BMP280;69239;50.678;12.280;2024-01-30T11:02:25;98854.97;;;12.06
79756;BMP280;69239;50.678;12.280;2024-01-30T11:04:57;98847.44;;;11.95
79756;BMP280;69239;50.678;12.280;2024-01-30T11:07:27;98856.16;;;11.95
79756;BMP280;69239;50.678;12.280;2024-01-30T11:10:00;98826.00;;;11.82
79756;BMP280;69239;50.678;12.280;2024-01-30T11:12:30;98849.19;;;12.04
79756;BMP280;69239;50.678;12.280;2024-01-30T11:17:28;98836.34;;;11.98
79756;BMP280;69239;50.678;12.280;2024-01-30T11:19:54;98818.56;;;12.03
79756;BMP280;69239;50.678;12.280;2024-01-30T11:22:22;98837.16;;;12.31
79756;BMP280;69239;50.678;12.280;2024-01-30T11:24:47;98840.50;;;12.36
79756;BMP280;69239;50.678;12.280;2024-01-30T11:27:13;98825.34;;;12.28
79756;BMP280;69239;50.678;12.280;2024-01-30T11:29:40;98837.78;;;12.60
79756;BMP280;69239;50.678;12.280;2024-01-30T11:32:05;98832.97;;;12.81
79756;BMP280;69239;50.678;12.280;2024-01-30T11:34:32;98832.88;;;13.00
79756;BMP280;69239;50.678;12.280;2024-01-30T11:37:03;98826.72;;;13.18
79756;BMP280;69239;50.678;12.280;2024-01-30T11:39:30;98832.19;;;13.49
79756;BMP280;69239;50.678;12.280;2024-01-30T11:41:56;98823.75;;;13.61
79756;BMP280;69239;50.678;12.280;2024-01-30T11:44:22;98838.75;;;13.65
79756;BMP280;69239;50.678;12.280;2024-01-30T11:46:48;98838.38;;;13.44
79756;BMP280;69239;50.678;12.280;2024-01-30T11:49:14;98834.19;;;13.16
79756;BMP280;69239;50.678;12.280;2024-01-30T11:51:40;98825.13;;;12.90
79756;BMP280;69239;50.678;12.280;2024-01-30T11:54:05;98830.56;;;12.79
79756;BMP280;69239;50.678;12.280;2024-01-30T11:56:30;98821.94;;;12.60
79756;BMP280;69239;50.678;12.280;2024-01-30T11:58:56;98805.09;;;12.37
79756;BMP280;69239;50.678;12.280;2024-01-30T12:01:21;98817.84;;;12.35
79756;BMP280;69239;50.678;12.280;2024-01-30T12:03:50;98803.03;;;12.20
79756;BMP280;69239;50.678;12.280;2024-01-30T12:06:16;98818.25;;;12.23
79756;BMP280;69239;50.678;12.280;2024-01-30T12:08:42;98819.44;;;12.17
79756;BMP280;69239;50.678;12.280;2024-01-30T12:11:07;98817.38;;;12.14
79756;BMP280;69239;50.678;12.280;2024-01-30T12:13:33;98820.72;;;12.20
79756;BMP280;69239;50.678;12.280;2024-01-30T12:15:59;98824.19;;;12.34
79756;BMP280;69239;50.678;12.280;2024-01-30T12:18:25;98817.94;;;12.63
79756;BMP280;69239;50.678;12.280;2024-01-30T12:21:00;98805.56;;;13.18
79756;BMP280;69239;50.678;12.280;2024-01-30T12:23:27;98813.44;;;14.09
79756;BMP280;69239;50.678;12.280;2024-01-30T12:25:52;98803.66;;;15.11
79756;BMP280;69239;50.678;12.280;2024-01-30T12:28:19;98800.59;;;16.04
79756;BMP280;69239;50.678;12.280;2024-01-30T12:30:44;98810.69;;;16.36
79756;BMP280;69239;50.678;12.280;2024-01-30T12:33:16;98804.78;;;16.31
79756;BMP280;69239;50.678;12.280;2024-01-30T12:35:45;98799.28;;;16.82
79756;BMP280;69239;50.678;12.280;2024-01-30T12:38:11;98800.19;;;17.16
79756;BMP280;69239;50.678;12.280;2024-01-30T12:40:36;98800.97;;;16.87
79756;BMP280;69239;50.678;12.280;2024-01-30T12:43:02;98801.00;;;16.49
79756;BMP280;69239;50.678;12.280;2024-01-30T12:45:28;98802.50;;;16.12
79756;BMP280;69239;50.678;12.280;2024-01-30T12:47:53;98808.56;;;15.61
79756;BMP280;69239;50.678;12.280;2024-01-30T12:50:19;98793.66;;;14.99
79756;BMP280;69239;50.678;12.280;2024-01-30T12:52:44;98798.09;;;14.50
79756;BMP280;69239;50.678;12.280;2024-01-30T12:55:10;98798.69;;;14.16
79756;BMP280;69239;50.678;12.280;2024-01-30T12:57:35;98790.53;;;13.91
79756;BMP280;69239;50.678;12.280;2024-01-30T13:00:01;98785.09;;;13.87
79756;BMP280;69239;50.678;12.280;2024-01-30T13:02:26;98776.50;;;13.90
79756;BMP280;69239;50.678;12.280;2024-01-30T13:05:00;98780.97;;;14.26
79756;BMP280;69239;50.678;12.280;2024-01-30T13:07:25;98790.94;;;14.51
79756;BMP280;69239;50.678;12.280;2024-01-30T13:09:50;98783.25;;;14.41
79756;BMP280;69239;50.678;12.280;2024-01-30T13:12:16;98786.69;;;14.19
79756;BMP280;69239;50.678;12.280;2024-01-30T13:14:42;98790.38;;;13.87
79756;BMP280;69239;50.678;12.280;2024-01-30T13:17:08;98777.13;;;13.51
79756;BMP280;69239;50.678;12.280;2024-01-30T13:19:33;98780.88;;;13.23
79756;BMP280;69239;50.678;12.280;2024-01-30T13:21:59;98790.06;;;12.98
79756;BMP280;69239;50.678;12.280;2024-01-30T13:24:24;98775.56;;;12.68
79756;BMP280;69239;50.678;12.280;2024-01-30T13:26:50;98776.00;;;12.88
79756;BMP280;69239;50.678;12.280;2024-01-30T13:29:15;98776.22;;;13.56
79756;BMP280;69239;50.678;12.280;2024-01-30T13:31:41;98763.03;;;14.23
79756;BMP280;69239;50.678;12.280;2024-01-30T13:34:06;98779.31;;;15.00
79756;BMP280;69239;50.678;12.280;2024-01-30T13:36:32;98763.44;;;15.61
79756;BMP280;69239;50.678;12.280;2024-01-30T13:38:57;98762.81;;;15.98
79756;BMP280;69239;50.678;12.280;2024-01-30T13:41:23;98764.00;;;16.09
79756;BMP280;69239;50.678;12.280;2024-01-30T13:43:49;98769.03;;;16.11
79756;BMP280;69239;50.678;12.280;2024-01-30T13:46:14;98768.13;;;16.07
79756;BMP280;69239;50.678;12.280;2024-01-30T13:48:40;98759.06;;;15.99
79756;BMP280;69239;50.678;12.280;2024-01-30T13:51:05;98745.94;;;15.94
79756;BMP280;69239;50.678;12.280;2024-01-30T13:53:32;98772.16;;;16.59
79756;BMP280;69239;50.678;12.280;2024-01-30T13:55:57;98771.75;;;17.08
79756;BMP280;69239;50.678;12.280;2024-01-30T13:58:23;98760.94;;;16.83
79756;BMP280;69239;50.678;12.280;2024-01-30T14:00:48;98765.09;;;16.26
79756;BMP280;69239;50.678;12.280;2024-01-30T14:03:14;98773.91;;;15.66